Time;durP1;ratioP1;P1;durP2;ratioP2;P2;SDS_P1;SDS_P2;PMS_P1;PMS_P2;Temp;Humidity;BMP_temperature;BMP_pressure;BME280_temperature;BME280_humidity;BME280_pressure;Samples;Min_cycle;Max_cycle;Signal;HPM_P1;HPM_P2
2023/08/04 00:00:10;;;;;;;0.37;0.37;;;;;;;17.38;97.09;95013.63;4335030;32;20204;-65
2023/08/04 00:02:37;;;;;;;0.23;0.23;;;;;;;17.51;96.83;95012.41;4326325;33;20194;-65
2023/08/04 00:05:03;;;;;;;0.47;0.47;;;;;;;17.49;96.86;95013.88;4333163;32;20194;-65
2023/08/04 00:07:28;;;;;;;0.13;0.13;;;;;;;17.49;97.15;95014.66;4333217;32;20198;-65
2023/08/04 00:09:53;;;;;;;0.10;0.10;;;;;;;17.48;97.18;95021.16;4338195;32;20190;-65
2023/08/04 00:12:19;;;;;;;0.40;0.40;;;;;;;17.28;98.01;95024.06;4333289;32;20257;-65
2023/08/04 00:14:46;;;;;;;0.37;0.37;;;;;;;17.24;98.55;95012.47;4340460;32;20188;-65
2023/08/04 00:17:12;;;;;;;0.10;0.10;;;;;;;17.32;98.23;94995.44;4338444;32;20212;-64
2023/08/04 00:19:37;;;;;;;0.63;0.57;;;;;;;17.40;97.99;94999.88;4348716;32;20193;-65
2023/08/04 00:22:02;;;;;;;0.27;0.27;;;;;;;17.12;98.57;94994.53;4338219;32;20197;-65
2023/08/04 00:24:28;;;;;;;0.20;0.20;;;;;;;17.21;98.49;94987.13;4342956;32;20204;-65
2023/08/04 00:26:53;;;;;;;2.37;0.43;;;;;;;17.27;98.39;94990.31;4334308;32;20210;-65
2023/08/04 00:29:18;;;;;;;0.30;0.30;;;;;;;17.35;98.22;94997.44;4346091;32;20189;-65
2023/08/04 00:31:44;;;;;;;0.13;0.13;;;;;;;17.36;97.76;94997.09;4334559;32;20244;-65
2023/08/04 00:34:09;;;;;;;0.10;0.10;;;;;;;17.36;98.21;95009.72;4346132;32;20197;-65
2023/08/04 00:36:34;;;;;;;0.30;0.30;;;;;;;17.36;98.02;95021.22;4336006;32;20196;-65
2023/08/04 00:38:59;;;;;;;0.10;0.10;;;;;;;17.29;97.97;95018.34;4335961;32;20186;-65
2023/08/04 00:41:25;;;;;;;0.40;0.33;;;;;;;17.27;98.09;95012.53;4348861;32;20197;-65
2023/08/04 00:43:50;;;;;;;0.10;0.10;;;;;;;17.35;98.00;95008.16;4355211;32;20189;-65
2023/08/04 00:46:16;;;;;;;0.10;0.10;;;;;;;17.38;97.77;95007.47;4339306;32;20223;-65
2023/08/04 00:48:42;;;;;;;0.50;0.30;;;;;;;17.31;97.88;95002.69;4335652;32;20265;-65
2023/08/04 00:51:08;;;;;;;0.33;0.33;;;;;;;17.36;97.71;95018.53;4337562;32;20189;-65
2023/08/04 00:53:33;;;;;;;0.20;0.20;;;;;;;17.36;97.51;95017.75;4333848;32;20200;-65
2023/08/04 00:55:59;;;;;;;6.17;0.30;;;;;;;17.37;97.68;95022.00;4338819;32;20205;-65
2023/08/04 00:58:24;;;;;;;0.00;0.00;;;;;;;17.35;97.74;95018.88;4353004;32;20212;-65
2023/08/04 01:00:49;;;;;;;2.00;0.47;;;;;;;17.30;97.70;95016.44;4342730;32;20241;-65
2023/08/04 01:03:15;;;;;;;0.20;0.20;;;;;;;17.23;97.84;95016.28;4341365;32;20212;-65
2023/08/04 01:05:55;;;;;;;0.20;0.20;;;;;;;17.28;98.03;95008.75;4341812;32;20201;-64
2023/08/04 01:08:30;;;;;;;0.87;0.50;;;;;;;17.14;98.40;95014.50;4332270;32;20190;-65
2023/08/04 01:11:00;;;;;;;0.10;0.10;;;;;;;17.23;98.01;94982.19;4340115;32;20266;-65
2023/08/04 01:13:29;;;;;;;0.30;0.30;;;;;;;17.29;97.72;94974.66;4332625;32;20241;-65
2023/08/04 01:15:56;;;;;;;0.40;0.40;;;;;;;17.34;97.24;94982.47;4351029;32;20224;-65
2023/08/04 01:18:22;;;;;;;0.30;0.30;;;;;;;17.28;97.24;95003.38;4332066;32;20236;-65
2023/08/04 01:20:48;;;;;;;0.50;0.50;;;;;;;17.29;97.51;95012.97;4344680;32;20224;-65
2023/08/04 01:23:14;;;;;;;3.70;0.60;;;;;;;17.25;97.85;95009.41;4348069;32;20204;-65
2023/08/04 01:25:41;;;;;;;0.67;0.43;;;;;;;17.35;97.53;95013.53;4339771;32;20203;-65
2023/08/04 01:28:14;;;;;;;0.50;0.50;;;;;;;17.31;97.34;95012.66;4345841;32;20190;-65
2023/08/04 01:30:43;;;;;;;0.20;0.20;;;;;;;17.27;97.28;95017.91;4339291;32;20190;-64
2023/08/04 01:33:09;;;;;;;0.20;0.20;;;;;;;17.26;97.47;95021.72;4346966;32;20189;-65
2023/08/04 01:35:35;;;;;;;0.10;0.10;;;;;;;17.28;97.72;95010.66;4353073;32;20197;-65
2023/08/04 01:38:00;;;;;;;0.73;0.50;;;;;;;17.23;98.14;95010.91;4358136;32;20193;-65
2023/08/04 01:40:25;;;;;;;0.07;0.07;;;;;;;17.14;98.07;95003.00;4339630;32;20231;-65
2023/08/04 01:42:50;;;;;;;0.10;0.10;;;;;;;17.06;98.20;94996.66;4341093;32;20227;-65
2023/08/04 01:45:16;;;;;;;0.30;0.30;;;;;;;17.05;98.80;94997.00;4340776;32;20193;-65
2023/08/04 01:47:41;;;;;;;0.00;0.00;;;;;;;17.03;98.72;94989.34;4340402;32;20216;-64
2023/08/04 01:50:10;;;;;;;0.00;0.00;;;;;;;17.16;98.26;94995.41;4348131;32;20277;-65
2023/08/04 01:52:36;;;;;;;0.33;0.33;;;;;;;17.13;98.08;94970.06;4342505;32;20204;-65
2023/08/04 01:55:01;;;;;;;0.50;0.50;;;;;;;17.17;97.97;94960.22;4342616;32;20185;-65
2023/08/04 01:57:26;;;;;;;0.20;0.20;;;;;;;17.14;98.49;94957.44;4345385;32;20315;-65
2023/08/04 01:59:52;;;;;;;0.57;0.57;;;;;;;17.21;97.58;94954.94;4340839;32;20240;-66
2023/08/04 02:02:17;;;;;;;0.83;0.40;;;;;;;17.18;97.34;94963.69;4338534;32;20248;-65
2023/08/04 02:04:42;;;;;;;1.20;0.60;;;;;;;17.23;97.42;94960.75;4328911;32;20269;-65
2023/08/04 02:07:08;;;;;;;0.10;0.10;;;;;;;17.14;97.53;94950.19;4346027;32;20209;-65
2023/08/04 02:09:33;;;;;;;0.93;0.47;;;;;;;17.17;97.60;94948.72;4340225;32;20255;-65
2023/08/04 02:11:59;;;;;;;0.20;0.20;;;;;;;17.17;97.73;94954.84;4336861;32;20186;-65
2023/08/04 02:14:27;;;;;;;0.27;0.27;;;;;;;17.15;97.56;94956.31;4350138;32;20200;-65
2023/08/04 02:16:54;;;;;;;0.17;0.17;;;;;;;17.18;97.49;94955.63;4346930;32;20198;-65
2023/08/04 02:19:21;;;;;;;0.20;0.20;;;;;;;17.19;97.52;94941.09;4341398;32;20186;-66
2023/08/04 02:21:46;;;;;;;0.63;0.63;;;;;;;17.23;96.95;94946.56;4336167;32;20186;-65
2023/08/04 02:24:12;;;;;;;0.60;0.43;;;;;;;17.08;97.77;94956.91;4348784;32;20188;-65
2023/08/04 02:26:37;;;;;;;0.20;0.20;;;;;;;17.09;97.82;94963.03;4338010;32;20204;-65
2023/08/04 02:29:02;;;;;;;0.53;0.53;;;;;;;17.04;98.17;94966.75;4346953;32;20221;-65
2023/08/04 02:31:29;;;;;;;0.27;0.27;;;;;;;16.97;98.48;94960.44;4339259;32;20260;-65
2023/08/04 02:33:54;;;;;;;0.27;0.27;;;;;;;16.95;98.34;94966.12;4339018;32;20195;-65
2023/08/04 02:36:20;;;;;;;0.43;0.43;;;;;;;16.88;98.65;94960.56;4342829;32;20204;-65
2023/08/04 02:38:46;;;;;;;0.30;0.30;;;;;;;16.99;98.24;94961.66;4345688;32;20198;-65
2023/08/04 02:41:11;;;;;;;0.20;0.20;;;;;;;16.87;98.72;94960.91;4340742;32;20197;-65
2023/08/04 02:43:37;;;;;;;0.20;0.20;;;;;;;16.89;98.62;94948.75;4341240;32;20196;-65
2023/08/04 02:46:02;;;;;;;0.17;0.17;;;;;;;16.90;98.38;94922.72;4340392;32;20186;-65
2023/08/04 02:48:28;;;;;;;0.30;0.30;;;;;;;16.85;98.57;94921.06;4338251;32;20261;-65
2023/08/04 02:51:04;;;;;;;0.37;0.33;;;;;;;16.99;97.92;94932.19;4336181;32;20233;-65
2023/08/04 02:53:31;;;;;;;0.47;0.47;;;;;;;16.97;97.31;94931.72;4340493;32;20275;-65
2023/08/04 02:55:57;;;;;;;0.20;0.20;;;;;;;17.07;97.07;94952.66;4351554;32;20197;-65
2023/08/04 02:58:23;;;;;;;0.20;0.20;;;;;;;17.08;96.73;94961.47;4345727;32;20331;-65
2023/08/04 03:00:49;;;;;;;0.57;0.40;;;;;;;17.04;97.14;94972.09;4337749;32;20185;-65
2023/08/04 03:03:15;;;;;;;0.17;0.17;;;;;;;17.01;96.86;94980.84;4353661;32;20188;-65
2023/08/04 03:05:40;;;;;;;0.33;0.33;;;;;;;16.78;97.91;94975.25;4345117;32;20196;-65
2023/08/04 03:08:06;;;;;;;0.03;0.03;;;;;;;17.01;97.29;94974.72;4335833;32;20243;-65
2023/08/04 03:10:31;;;;;;;0.10;0.10;;;;;;;16.89;97.23;94980.13;4342361;32;20196;-65
2023/08/04 03:12:56;;;;;;;0.20;0.20;;;;;;;16.96;97.25;94974.97;4336237;32;20208;-65
2023/08/04 03:15:22;;;;;;;0.00;0.00;;;;;;;16.95;97.28;94989.47;4345591;32;20240;-65
2023/08/04 03:17:47;;;;;;;1.20;0.60;;;;;;;16.87;97.40;94988.50;4329882;32;20283;-65
2023/08/04 03:20:12;;;;;;;0.23;0.23;;;;;;;16.99;97.07;94993.03;4340864;32;20265;-65
2023/08/04 03:22:37;;;;;;;3.10;0.53;;;;;;;16.99;96.80;94991.13;4345463;32;20258;-65
2023/08/04 03:25:04;;;;;;;0.60;0.43;;;;;;;16.81;97.24;94982.62;4349272;32;20200;-66
2023/08/04 03:27:29;;;;;;;2.07;0.30;;;;;;;16.89;96.83;94985.47;4339125;32;20201;-65
2023/08/04 03:29:54;;;;;;;0.00;0.00;;;;;;;16.77;97.37;94979.06;4338308;32;20237;-65
2023/08/04 03:32:19;;;;;;;0.10;0.10;;;;;;;16.78;97.45;94982.50;4336872;32;20236;-65
2023/08/04 03:34:45;;;;;;;0.00;0.00;;;;;;;16.55;98.11;94968.03;4348668;32;20256;-66
2023/08/04 03:37:10;;;;;;;0.50;0.47;;;;;;;16.62;97.94;94971.72;4341948;32;20208;-64
2023/08/04 03:39:35;;;;;;;0.10;0.10;;;;;;;16.58;97.81;94994.16;4357685;32;20197;-65
2023/08/04 03:42:01;;;;;;;0.30;0.17;;;;;;;16.70;97.54;94994.91;4342483;32;20251;-65
2023/08/04 03:44:26;;;;;;;0.20;0.20;;;;;;;16.87;96.61;95009.94;4353186;32;20249;-65
2023/08/04 03:46:51;;;;;;;0.17;0.17;;;;;;;16.73;96.74;95014.91;4335086;32;20239;-65
2023/08/04 03:49:17;;;;;;;0.40;0.40;;;;;;;16.70;97.00;95018.25;4346069;32;20245;-65
2023/08/04 03:51:42;;;;;;;0.23;0.23;;;;;;;16.72;97.05;95014.13;4346232;32;20208;-65
2023/08/04 03:54:07;;;;;;;0.40;0.40;;;;;;;16.82;95.89;95018.22;4337222;32;20219;-65
2023/08/04 03:56:32;;;;;;;0.10;0.10;;;;;;;16.89;95.55;95018.41;4333775;32;20194;-65
2023/08/04 03:58:58;;;;;;;0.30;0.30;;;;;;;16.76;96.19;95016.91;4342887;32;20197;-65
2023/08/04 04:01:23;;;;;;;0.20;0.20;;;;;;;16.83;96.24;95022.47;4333248;32;20197;-65
2023/08/04 04:03:49;;;;;;;0.53;0.53;;;;;;;16.79;96.25;95032.28;4331151;32;20189;-65
2023/08/04 04:06:16;;;;;;;0.00;0.00;;;;;;;16.80;96.08;95028.50;4340525;32;20224;-64
2023/08/04 04:08:41;;;;;;;0.20;0.20;;;;;;;16.82;95.81;95018.22;4336261;32;20192;-64
2023/08/04 04:11:06;;;;;;;0.83;0.40;;;;;;;16.81;95.16;95020.12;4348525;32;20193;-65
2023/08/04 04:13:32;;;;;;;0.30;0.30;;;;;;;16.76;94.36;95006.97;4337464;32;20236;-65
2023/08/04 04:15:57;;;;;;;0.07;0.07;;;;;;;16.64;94.30;95001.63;4334939;32;20268;-65
2023/08/04 04:18:22;;;;;;;0.50;0.50;;;;;;;16.71;94.15;94995.69;4340381;32;20193;-65
2023/08/04 04:20:47;;;;;;;0.63;0.33;;;;;;;16.64;94.34;94998.16;4339856;32;20250;-65
2023/08/04 04:23:13;;;;;;;0.53;0.30;;;;;;;16.61;93.33;94993.47;4338881;32;20192;-66
2023/08/04 04:25:39;;;;;;;0.10;0.10;;;;;;;16.50;93.90;94993.16;4334804;32;20211;-66
2023/08/04 04:28:04;;;;;;;0.00;0.00;;;;;;;16.46;93.55;94989.59;4344664;32;20223;-65
2023/08/04 04:30:32;;;;;;;0.10;0.10;;;;;;;16.56;92.63;94991.03;4352746;32;20287;-65
2023/08/04 04:32:57;;;;;;;0.00;0.00;;;;;;;16.60;92.77;94990.03;4343686;32;20210;-65
2023/08/04 04:35:22;;;;;;;0.00;0.00;;;;;;;16.63;92.69;94991.22;4346865;32;20212;-65
2023/08/04 04:37:48;;;;;;;0.07;0.07;;;;;;;16.66;91.91;95014.69;4355872;32;20246;-65
2023/08/04 04:40:13;;;;;;;0.10;0.10;;;;;;;16.54;93.02;95034.22;4340757;32;20211;-64
2023/08/04 04:42:38;;;;;;;0.20;0.20;;;;;;;16.39;93.49;95030.34;4349167;32;20224;-65
2023/08/04 04:45:06;;;;;;;0.00;0.00;;;;;;;16.27;94.04;95045.63;4346981;32;20223;-65
2023/08/04 04:47:32;;;;;;;0.17;0.17;;;;;;;16.18;95.94;95053.78;4333624;32;20181;-65
2023/08/04 04:49:57;;;;;;;2.80;0.53;;;;;;;16.20;95.86;95046.19;4339327;32;20249;-66
2023/08/04 04:52:34;;;;;;;0.60;0.47;;;;;;;16.19;96.18;95039.28;4335051;32;20193;-64
2023/08/04 04:55:00;;;;;;;0.67;0.53;;;;;;;16.08;96.27;95028.25;4342213;32;20196;-65
2023/08/04 04:57:26;;;;;;;0.00;0.00;;;;;;;16.07;96.44;95023.22;4333915;32;20244;-68
2023/08/04 04:59:52;;;;;;;0.30;0.30;;;;;;;16.15;96.38;95015.09;4340172;32;20205;-66
2023/08/04 05:02:17;;;;;;;0.27;0.27;;;;;;;16.09;95.02;95023.66;4349377;32;20243;-66
2023/08/04 05:04:43;;;;;;;0.07;0.03;;;;;;;16.14;94.70;95021.56;4337473;32;20190;-65
2023/08/04 05:07:09;;;;;;;0.20;0.20;;;;;;;16.29;94.10;95017.41;4354166;32;20212;-66
2023/08/04 05:09:34;;;;;;;0.00;0.00;;;;;;;16.27;94.52;95021.53;4340491;32;20245;-66
2023/08/04 05:11:59;;;;;;;0.20;0.13;;;;;;;16.18;94.49;95010.97;4348499;32;20283;-67
2023/08/04 05:14:25;;;;;;;0.10;0.10;;;;;;;16.30;94.09;95012.84;4356653;32;20247;-66
2023/08/04 05:16:50;;;;;;;0.07;0.07;;;;;;;16.26;94.64;95006.59;4350671;32;20201;-66
2023/08/04 05:19:15;;;;;;;0.23;0.23;;;;;;;16.41;93.94;95004.00;4351241;32;20233;-66
2023/08/04 05:21:41;;;;;;;0.37;0.27;;;;;;;16.45;93.36;95009.44;4354717;32;20231;-66
2023/08/04 05:24:06;;;;;;;0.10;0.10;;;;;;;16.36;94.17;95012.28;4352734;32;20189;-66
2023/08/04 05:26:31;;;;;;;0.27;0.27;;;;;;;16.27;94.49;95014.28;4344151;32;20188;-67
2023/08/04 05:28:57;;;;;;;0.30;0.30;;;;;;;16.40;93.77;95002.47;4352120;32;20246;-66
2023/08/04 05:31:22;;;;;;;0.20;0.20;;;;;;;16.47;93.19;94999.19;4346049;32;20190;-66
2023/08/04 05:33:48;;;;;;;0.00;0.00;;;;;;;16.42;93.29;95010.91;4345062;32;20259;-66
2023/08/04 05:36:13;;;;;;;6.53;0.60;;;;;;;16.47;92.72;95018.72;4351833;32;20234;-66
2023/08/04 05:38:39;;;;;;;0.07;0.07;;;;;;;16.54;92.79;95020.03;4332522;32;20192;-66
2023/08/04 05:41:05;;;;;;;0.30;0.30;;;;;;;16.30;94.13;95023.53;4348451;32;20185;-66
2023/08/04 05:43:30;;;;;;;0.00;0.00;;;;;;;16.10;95.77;95036.72;4331777;32;20288;-66
2023/08/04 05:46:02;;;;;;;0.57;0.50;;;;;;;15.92;95.94;95039.94;4351425;32;20211;-66
2023/08/04 05:48:27;;;;;;;1.80;0.40;;;;;;;15.91;96.61;95041.06;4339170;32;20204;-66
2023/08/04 05:50:56;;;;;;;0.20;0.20;;;;;;;15.91;96.44;95046.41;4344392;32;20185;-66
2023/08/04 05:53:21;;;;;;;0.00;0.00;;;;;;;15.93;95.98;95038.84;4352547;32;20205;-66
2023/08/04 05:55:46;;;;;;;0.20;0.20;;;;;;;15.94;96.13;95035.03;4349689;32;20199;-66
2023/08/04 05:58:11;;;;;;;0.30;0.30;;;;;;;15.94;96.36;95027.00;4350976;32;20184;-66
2023/08/04 06:00:37;;;;;;;0.10;0.10;;;;;;;16.07;95.97;95017.88;4353398;32;20231;-66
2023/08/04 06:03:04;;;;;;;0.10;0.10;;;;;;;16.17;95.54;95019.31;4347892;32;20215;-66
2023/08/04 06:05:29;;;;;;;0.27;0.27;;;;;;;16.31;94.99;95025.09;4350063;32;20201;-66
2023/08/04 06:07:55;;;;;;;0.23;0.23;;;;;;;16.24;94.34;95032.91;4353399;32;20212;-66
2023/08/04 06:10:20;;;;;;;0.43;0.40;;;;;;;16.29;94.47;95036.16;4357650;32;20250;-67
2023/08/04 06:12:48;;;;;;;0.47;0.30;;;;;;;16.01;95.12;95027.22;4340846;32;20196;-65
2023/08/04 06:15:15;;;;;;;0.10;0.10;;;;;;;16.04;94.99;95027.34;4354352;32;20212;-65
2023/08/04 06:17:41;;;;;;;0.07;0.07;;;;;;;16.01;95.45;95029.91;4332962;32;20190;-65
2023/08/04 06:20:08;;;;;;;0.30;0.30;;;;;;;15.89;96.05;95032.59;4350586;32;20197;-65
2023/08/04 06:22:34;;;;;;;1.40;1.27;;;;;;;15.86;96.02;95030.56;4342828;32;20233;-65
2023/08/04 06:25:00;;;;;;;0.63;0.63;;;;;;;15.87;96.46;95032.91;4356263;32;20215;-65
2023/08/04 06:27:25;;;;;;;1.47;0.37;;;;;;;16.04;95.63;95039.94;4352198;32;20194;-65
2023/08/04 06:29:50;;;;;;;0.40;0.40;;;;;;;16.12;95.26;95034.50;4356185;32;20196;-65
2023/08/04 06:32:16;;;;;;;0.00;0.00;;;;;;;16.24;94.97;95028.34;4347915;32;20194;-66
2023/08/04 06:34:41;;;;;;;0.83;0.33;;;;;;;16.19;95.75;95028.59;4333631;32;20219;-67
2023/08/04 06:37:06;;;;;;;2.43;0.80;;;;;;;16.23;95.07;95026.00;4336478;32;20193;-67
2023/08/04 06:39:32;;;;;;;0.20;0.20;;;;;;;16.12;95.65;95031.81;4333582;32;20255;-67
2023/08/04 06:41:57;;;;;;;0.37;0.37;;;;;;;16.18;94.86;95032.37;4352071;32;20225;-68
2023/08/04 06:44:22;;;;;;;0.20;0.20;;;;;;;16.21;94.66;95037.03;4339751;32;20258;-67
2023/08/04 06:46:48;;;;;;;0.60;0.57;;;;;;;16.37;94.65;95037.94;4336302;32;20229;-67
2023/08/04 06:49:13;;;;;;;3.40;0.50;;;;;;;16.50;93.95;95050.19;4343958;32;20185;-67
2023/08/04 06:51:39;;;;;;;0.30;0.30;;;;;;;16.56;93.67;95053.41;4344958;32;20203;-67
2023/08/04 06:54:04;;;;;;;0.53;0.30;;;;;;;16.75;92.69;95048.28;4333191;32;20227;-67
2023/08/04 06:56:29;;;;;;;0.40;0.40;;;;;;;16.80;92.65;95060.66;4333195;32;26471;-67
2023/08/04 06:58:55;;;;;;;0.80;0.17;;;;;;;16.79;92.70;95062.56;4341901;32;20240;-68
2023/08/04 07:01:20;;;;;;;0.20;0.20;;;;;;;16.83;92.98;95051.94;4340789;32;20263;-66
2023/08/04 07:03:47;;;;;;;1.60;0.40;;;;;;;16.68;92.44;95055.31;4332764;32;20201;-65
2023/08/04 07:06:13;;;;;;;0.10;0.10;;;;;;;16.74;92.70;95060.09;4327864;32;20200;-66
2023/08/04 07:08:38;;;;;;;8.50;0.43;;;;;;;16.83;92.16;95058.06;4335147;32;20217;-66
2023/08/04 07:11:03;;;;;;;0.40;0.33;;;;;;;16.88;92.25;95057.03;4339952;32;20228;-66
2023/08/04 07:13:29;;;;;;;0.10;0.10;;;;;;;16.86;92.52;95063.84;4340817;32;20216;-66
2023/08/04 07:15:57;;;;;;;0.20;0.20;;;;;;;16.88;92.70;95064.28;4342658;32;20215;-66
2023/08/04 07:18:23;;;;;;;0.20;0.20;;;;;;;16.89;92.83;95061.28;4356371;32;20235;-65
2023/08/04 07:20:48;;;;;;;0.63;0.63;;;;;;;16.90;92.90;95056.69;4346974;32;20221;-66
2023/08/04 07:23:14;;;;;;;0.10;0.10;;;;;;;16.92;92.49;95059.81;4336735;32;20212;-65
2023/08/04 07:25:39;;;;;;;0.00;0.00;;;;;;;16.96;92.63;95053.47;4334995;32;20205;-66
2023/08/04 07:28:04;;;;;;;0.20;0.20;;;;;;;16.97;92.93;95063.06;4332877;32;20288;-66
2023/08/04 07:30:32;;;;;;;0.20;0.20;;;;;;;17.02;92.80;95067.41;4338421;32;20343;-66
2023/08/04 07:32:58;;;;;;;0.43;0.43;;;;;;;17.07;92.78;95070.59;4338994;32;20209;-66
2023/08/04 07:35:23;;;;;;;0.13;0.13;;;;;;;17.07;93.07;95061.78;4330655;32;20197;-66
2023/08/04 07:37:48;;;;;;;0.27;0.27;;;;;;;17.11;92.79;95051.94;4347035;32;20248;-66
2023/08/04 07:40:14;;;;;;;0.20;0.20;;;;;;;17.17;92.79;95056.72;4340023;32;20185;-65
2023/08/04 07:42:39;;;;;;;0.00;0.00;;;;;;;17.17;92.83;95056.72;4356208;32;20193;-66
2023/08/04 07:45:05;;;;;;;0.93;0.37;;;;;;;17.26;92.55;95061.94;4340009;32;20239;-66
2023/08/04 07:47:30;;;;;;;0.10;0.10;;;;;;;17.25;92.22;95065.72;4340016;32;20273;-66
2023/08/04 07:49:55;;;;;;;3.83;0.53;;;;;;;17.31;91.88;95069.72;4332288;32;20232;-66
2023/08/04 07:52:21;;;;;;;0.40;0.40;;;;;;;17.23;92.23;95070.69;4327841;32;20233;-65
2023/08/04 07:54:46;;;;;;;0.27;0.27;;;;;;;17.34;91.88;95068.28;4351819;32;20196;-66
2023/08/04 07:57:11;;;;;;;0.10;0.10;;;;;;;17.16;92.69;95073.94;4335666;32;20185;-65
2023/08/04 07:59:36;;;;;;;0.20;0.20;;;;;;;17.23;92.26;95075.25;4337000;32;20189;-66
2023/08/04 08:02:02;;;;;;;0.37;0.37;;;;;;;17.29;91.53;95076.56;4339589;32;20211;-66
2023/08/04 08:04:27;;;;;;;0.00;0.00;;;;;;;17.30;91.01;95068.16;4332716;32;20233;-66
2023/08/04 08:06:52;;;;;;;0.10;0.10;;;;;;;17.31;90.57;95067.06;4336171;32;20245;-65
2023/08/04 08:09:18;;;;;;;0.10;0.10;;;;;;;17.33;89.79;95075.53;4355145;32;20248;-66
2023/08/04 08:11:43;;;;;;;0.27;0.23;;;;;;;17.31;89.98;95063.59;4334470;32;20189;-65
2023/08/04 08:14:08;;;;;;;0.10;0.10;;;;;;;17.52;88.89;95058.78;4344705;32;20209;-66
2023/08/04 08:16:34;;;;;;;0.10;0.10;;;;;;;17.49;89.12;95062.16;4345196;32;20209;-66
2023/08/04 08:19:01;;;;;;;0.27;0.27;;;;;;;17.49;89.16;95059.47;4326994;32;20212;-66
2023/08/04 08:21:26;;;;;;;0.17;0.17;;;;;;;17.56;89.02;95051.62;4334021;32;20212;-66
2023/08/04 08:23:52;;;;;;;0.40;0.40;;;;;;;17.45;88.85;95050.59;4329042;32;20202;-65
2023/08/04 08:26:17;;;;;;;0.20;0.20;;;;;;;17.64;88.55;95048.03;4335854;32;20217;-65
2023/08/04 08:28:42;;;;;;;0.17;0.17;;;;;;;17.76;87.83;95047.97;4321501;32;20229;-65
2023/08/04 08:31:08;;;;;;;0.13;0.13;;;;;;;17.82;86.00;95043.91;4320301;32;20189;-65
2023/08/04 08:33:33;;;;;;;3.93;0.57;;;;;;;17.82;86.43;95040.44;4320036;32;20221;-65
2023/08/04 08:35:59;;;;;;;0.10;0.10;;;;;;;17.90;85.29;95047.53;4342329;32;20241;-65
2023/08/04 08:38:24;;;;;;;0.17;0.17;;;;;;;17.91;84.43;95049.09;4328428;32;20293;-66
2023/08/04 08:40:50;;;;;;;0.20;0.20;;;;;;;17.97;84.71;95049.59;4310478;32;20186;-65
2023/08/04 08:43:15;;;;;;;0.00;0.00;;;;;;;17.98;84.50;95045.81;4340937;32;20208;-66
2023/08/04 08:45:43;;;;;;;0.30;0.30;;;;;;;18.10;84.66;95045.69;4335255;32;20207;-64
2023/08/04 08:48:10;;;;;;;0.83;0.30;;;;;;;18.26;84.10;95051.06;4329394;32;20181;-65
2023/08/04 08:50:38;;;;;;;0.00;0.00;;;;;;;18.25;83.65;95049.53;4327792;32;20268;-65
2023/08/04 08:53:13;;;;;;;0.00;0.00;;;;;;;18.25;82.82;95050.28;4321721;32;20190;-65
2023/08/04 08:55:40;;;;;;;0.20;0.20;;;;;;;18.26;82.71;95057.22;4334843;32;20185;-65
2023/08/04 08:58:05;;;;;;;0.27;0.27;;;;;;;18.16;82.72;95049.69;4333687;32;20247;-65
2023/08/04 09:00:31;;;;;;;0.23;0.23;;;;;;;18.35;82.81;95044.38;4339549;32;20253;-65
2023/08/04 09:02:57;;;;;;;0.10;0.10;;;;;;;18.42;82.05;95049.13;4330478;32;20208;-65
2023/08/04 09:05:23;;;;;;;0.10;0.10;;;;;;;18.42;81.49;95054.50;4331918;32;20211;-65
2023/08/04 09:07:49;;;;;;;0.20;0.20;;;;;;;18.26;82.58;95053.75;4326143;32;20260;-65
2023/08/04 09:10:14;;;;;;;0.00;0.00;;;;;;;18.41;81.77;95042.22;4325596;32;20186;-65
2023/08/04 09:12:40;;;;;;;0.10;0.10;;;;;;;18.43;81.52;95045.31;4331576;32;20240;-65
2023/08/04 09:15:05;;;;;;;2.53;0.43;;;;;;;18.46;81.28;95045.41;4328155;32;20215;-65
2023/08/04 09:17:34;;;;;;;0.10;0.10;;;;;;;18.39;82.79;95041.78;4342304;32;20315;-65
2023/08/04 09:20:02;;;;;;;1.30;0.23;;;;;;;18.25;82.71;95038.78;4343595;32;20225;-65
2023/08/04 09:25:53;;;;;;;0.10;0.10;;;;;;;18.30;84.44;95041.94;4355022;32;20255;-65
2023/08/04 09:28:18;;;;;;;0.00;0.00;;;;;;;18.32;83.91;95037.00;4357988;32;20193;-65
2023/08/04 09:31:10;;;;;;;0.30;0.30;;;;;;;18.33;83.50;95038.56;4343833;32;20247;-65
2023/08/04 09:33:44;;;;;;;0.20;0.20;;;;;;;18.24;82.03;95046.06;4352070;32;20189;-65
2023/08/04 09:36:19;;;;;;;0.00;0.00;;;;;;;18.40;80.58;95037.97;4344086;32;20260;-65
2023/08/04 09:38:44;;;;;;;0.10;0.00;;;;;;;18.40;80.93;95041.44;4330324;32;20184;-68
2023/08/04 09:41:14;;;;;;;0.30;0.30;;;;;;;18.33;80.43;95033.19;4356136;32;20266;-65
2023/08/04 09:43:44;;;;;;;0.10;0.10;;;;;;;18.32;81.02;95028.19;4340942;32;20237;-65
2023/08/04 09:46:09;;;;;;;0.10;0.10;;;;;;;18.40;80.67;95032.59;4348845;32;20193;-65
2023/08/04 09:48:35;;;;;;;0.10;0.10;;;;;;;18.29;81.59;95029.66;4354442;32;20242;-65
2023/08/04 09:51:11;;;;;;;0.10;0.10;;;;;;;18.37;81.71;95038.66;4350890;32;20300;-65
2023/08/04 09:53:41;;;;;;;0.17;0.17;;;;;;;18.53;82.04;95034.81;4347792;32;20211;-65
2023/08/04 09:56:08;;;;;;;0.40;0.30;;;;;;;18.52;82.38;95035.16;4354074;32;20190;-65
2023/08/04 09:58:34;;;;;;;1.20;0.77;;;;;;;18.42;81.59;95039.19;4357693;32;20207;-65
2023/08/04 10:01:01;;;;;;;0.47;0.30;;;;;;;18.52;83.05;95046.69;4361203;32;20216;-65
2023/08/04 10:03:28;;;;;;;0.20;0.20;;;;;;;18.69;83.34;95039.41;4345916;32;20193;-66
2023/08/04 10:05:55;;;;;;;0.20;0.20;;;;;;;18.74;82.65;95039.09;4349155;32;20196;-65
2023/08/04 10:08:20;;;;;;;0.20;0.20;;;;;;;18.84;81.14;95033.19;4342743;32;20216;-65
2023/08/04 10:10:46;;;;;;;0.20;0.20;;;;;;;18.64;80.02;95037.00;4352869;32;20196;-65
2023/08/04 10:13:12;;;;;;;0.30;0.30;;;;;;;18.52;80.22;95030.56;4344628;32;20200;-64
2023/08/04 10:15:37;;;;;;;0.10;0.10;;;;;;;18.53;80.90;95023.28;4342491;32;20194;-65
2023/08/04 10:18:03;;;;;;;0.30;0.30;;;;;;;18.66;81.50;95021.28;4340899;32;20227;-65
2023/08/04 10:20:33;;;;;;;0.20;0.20;;;;;;;18.78;80.43;95026.53;4335955;32;20229;-65
2023/08/04 10:22:58;;;;;;;0.30;0.30;;;;;;;18.82;80.74;95032.75;4322653;33;20204;-66
2023/08/04 10:25:24;;;;;;;0.20;0.20;;;;;;;18.96;79.90;95029.56;4317847;32;20182;-65
2023/08/04 10:27:50;;;;;;;0.20;0.20;;;;;;;18.96;80.06;95018.81;4320141;33;20237;-65
2023/08/04 10:30:16;;;;;;;0.30;0.30;;;;;;;18.92;79.41;95024.13;4333438;32;20265;-65
2023/08/04 10:32:42;;;;;;;0.40;0.40;;;;;;;19.00;80.50;95031.22;4324513;32;20216;-65
2023/08/04 10:35:19;;;;;;;0.10;0.10;;;;;;;19.02;78.74;95031.63;4344226;32;20192;-65
2023/08/04 10:37:55;;;;;;;0.00;0.00;;;;;;;19.04;79.15;95018.63;4317844;32;20261;-65
2023/08/04 10:40:31;;;;;;;2.10;1.43;;;;;;;19.13;78.23;95019.16;4322420;33;20199;-65
2023/08/04 10:43:04;;;;;;;0.50;0.47;;;;;;;19.26;77.80;95033.25;4326454;32;20223;-66
2023/08/04 10:45:52;;;;;;;0.10;0.10;;;;;;;19.37;78.32;95044.22;4342161;32;20288;-65
2023/08/04 10:48:20;;;;;;;0.03;0.03;;;;;;;19.43;76.82;95053.56;4324740;32;20190;-65
2023/08/04 10:50:46;;;;;;;0.20;0.20;;;;;;;19.44;75.31;95041.66;4328325;32;20200;-65
2023/08/04 10:53:12;;;;;;;0.20;0.20;;;;;;;19.50;76.17;95035.69;4341594;32;20213;-65
2023/08/04 10:55:50;;;;;;;0.20;0.20;;;;;;;19.52;78.80;95033.41;4331061;32;20197;-65
2023/08/04 10:58:15;;;;;;;2.30;2.20;;;;;;;19.46;75.66;95039.41;4335879;32;20235;-66
2023/08/04 11:00:44;;;;;;;0.10;0.10;;;;;;;19.53;74.33;95042.25;4337822;32;20193;-65
2023/08/04 11:03:26;;;;;;;0.20;0.20;;;;;;;19.44;70.73;95063.19;4335972;32;20190;-65
2023/08/04 11:05:52;;;;;;;0.13;0.13;;;;;;;19.38;71.52;95081.53;4326883;32;20269;-65
2023/08/04 11:08:19;;;;;;;0.50;0.47;;;;;;;19.48;72.85;95093.66;4327215;32;20211;-67
2023/08/04 11:10:49;;;;;;;0.30;0.30;;;;;;;19.46;76.71;95101.28;4340765;32;20242;-67
2023/08/04 11:13:17;;;;;;;0.20;0.20;;;;;;;19.51;75.91;95109.13;4317475;32;20207;-66
2023/08/04 11:15:43;;;;;;;0.40;0.20;;;;;;;19.63;75.41;95111.66;4335684;32;20193;-66
2023/08/04 11:18:13;;;;;;;0.10;0.10;;;;;;;19.68;75.65;95116.75;4325110;32;20276;-66
2023/08/04 11:20:40;;;;;;;0.20;0.20;;;;;;;19.76;74.32;95101.47;4323622;32;20209;-67
2023/08/04 11:23:10;;;;;;;0.20;0.20;;;;;;;19.70;73.58;95098.31;4322549;32;20197;-66
2023/08/04 11:25:37;;;;;;;0.10;0.10;;;;;;;19.83;74.35;95097.00;4326721;32;20204;-66
2023/08/04 11:28:03;;;;;;;0.10;0.10;;;;;;;19.72;73.04;95084.50;4332565;32;20243;-66
2023/08/04 11:30:29;;;;;;;0.20;0.20;;;;;;;19.84;74.11;95078.94;4318177;32;20201;-67
2023/08/04 11:32:54;;;;;;;0.20;0.20;;;;;;;19.75;72.87;95092.63;4332042;32;20208;-66